createdAt,value
2022-07-29T00:01:30.591Z,101395.53
2022-07-29T00:03:57.383Z,101394.81
2022-07-29T00:06:24.135Z,101398.56
2022-07-29T00:08:50.868Z,101397.38
2022-07-29T00:11:17.636Z,101389.13
2022-07-29T00:13:47.705Z,101389.50
2022-07-29T00:16:17.588Z,101386.66
2022-07-29T00:18:44.581Z,101402.81
2022-07-29T00:21:11.318Z,101393.28
2022-07-29T00:23:38.026Z,101389.50
2022-07-29T00:26:04.881Z,101396.09
2022-07-29T00:28:31.575Z,101393.53
2022-07-29T00:30:58.360Z,101392.69
2022-07-29T00:33:25.135Z,101389.88
2022-07-29T00:36:05.056Z,101387.41
2022-07-29T00:38:31.912Z,101393.91
2022-07-29T00:40:58.699Z,101395.88
2022-07-29T00:43:25.962Z,101388.19
2022-07-29T00:45:55.997Z,101394.91
2022-07-29T00:48:22.715Z,101395.75
2022-07-29T00:50:53.705Z,101404.69
2022-07-29T00:53:22.197Z,101401.53
2022-07-29T00:55:49.303Z,101405.91
2022-07-29T00:58:16.112Z,101413.97
2022-07-29T01:00:45.589Z,101420.22
2022-07-29T01:03:12.726Z,101410.69
2022-07-29T01:05:49.952Z,101414.47
2022-07-29T01:08:21.160Z,101412.03
2022-07-29T01:10:50.146Z,101409.47
2022-07-29T01:13:18.843Z,101410.09
2022-07-29T01:15:57.711Z,101403.00
2022-07-29T01:18:47.369Z,101400.31
2022-07-29T01:21:49.815Z,101393.31
2022-07-29T01:25:18.452Z,101402.50
2022-07-29T01:28:47.926Z,101400.81
2022-07-29T01:31:59.065Z,101401.78
2022-07-29T01:34:53.253Z,101399.81
2022-07-29T01:37:29.497Z,101396.16
2022-07-29T01:40:00.886Z,101398.69
2022-07-29T01:42:43.103Z,101390.25
2022-07-29T01:45:29.126Z,101394.56
2022-07-29T01:48:13.216Z,101396.63
2022-07-29T01:51:07.635Z,101398.09
2022-07-29T01:53:43.546Z,101398.81
2022-07-29T01:56:14.454Z,101389.66
2022-07-29T01:58:46.773Z,101390.75
2022-07-29T02:01:15.691Z,101386.94
2022-07-29T02:03:48.811Z,101378.88
2022-07-29T02:06:23.464Z,101377.88
2022-07-29T02:08:54.695Z,101372.84
2022-07-29T02:11:21.524Z,101365.38
2022-07-29T02:13:58.148Z,101367.56
2022-07-29T02:16:31.774Z,101374.03
2022-07-29T02:19:03.308Z,101365.81
2022-07-29T02:21:34.690Z,101363.72
2022-07-29T02:24:03.669Z,101367.00
2022-07-29T02:26:34.939Z,101367.16
2022-07-29T02:29:03.753Z,101354.91
2022-07-29T02:31:38.002Z,101363.13
2022-07-29T02:34:09.747Z,101357.72
2022-07-29T02:36:38.831Z,101355.19
2022-07-29T02:39:12.139Z,101355.63
2022-07-29T02:41:49.388Z,101355.63
2022-07-29T02:44:21.778Z,101351.38
2022-07-29T02:47:03.371Z,101354.53
2022-07-29T02:50:09.391Z,101354.25
2022-07-29T02:52:45.929Z,101352.91
2022-07-29T02:55:27.076Z,101355.94
2022-07-29T02:58:23.749Z,101360.19
2022-07-29T03:00:54.284Z,101357.09
2022-07-29T03:03:23.439Z,101351.44
2022-07-29T03:05:50.499Z,101344.94
2022-07-29T03:08:18.188Z,101350.81
2022-07-29T03:10:48.130Z,101353.34
2022-07-29T03:13:17.031Z,101345.03
2022-07-29T03:15:46.894Z,101344.63
2022-07-29T03:18:15.763Z,101347.66
2022-07-29T03:20:43.532Z,101347.09
2022-07-29T03:23:10.639Z,101345.00
2022-07-29T03:25:37.897Z,101347.16
2022-07-29T03:28:04.909Z,101342.94
2022-07-29T03:30:31.702Z,101348.53
2022-07-29T03:32:58.974Z,101346.59
2022-07-29T03:35:25.816Z,101346.91
2022-07-29T03:37:52.665Z,101338.84
2022-07-29T03:40:52.499Z,101342.28
2022-07-29T03:43:24.126Z,101340.47
2022-07-29T03:45:57.235Z,101338.81
2022-07-29T03:48:27.550Z,101338.97
2022-07-29T03:50:54.367Z,101341.69
2022-07-29T03:53:24.468Z,101340.72
2022-07-29T03:56:00.222Z,101339.88
2022-07-29T03:58:30.984Z,101337.47
2022-07-29T04:01:00.153Z,101333.47
2022-07-29T04:03:27.241Z,101330.72
2022-07-29T04:06:07.839Z,101332.09
2022-07-29T04:08:35.877Z,101336.06
2022-07-29T04:11:04.921Z,101340.97
2022-07-29T04:13:33.896Z,101338.59
2022-07-29T04:16:00.962Z,101337.78
2022-07-29T04:18:28.781Z,101340.38
2022-07-29T04:20:55.707Z,101334.88
2022-07-29T04:23:22.427Z,101339.47
2022-07-29T04:25:49.264Z,101338.25
2022-07-29T04:28:16.046Z,101335.72
2022-07-29T04:30:43.884Z,101338.00
2022-07-29T04:33:10.751Z,101337.34
2022-07-29T04:35:47.202Z,101336.03
2022-07-29T04:38:17.545Z,101342.09
2022-07-29T04:40:44.429Z,101336.06
2022-07-29T04:43:12.568Z,101344.09
2022-07-29T04:45:41.033Z,101345.03
2022-07-29T04:48:07.842Z,101343.66
2022-07-29T04:50:34.655Z,101338.00
2022-07-29T04:53:01.329Z,101337.06
2022-07-29T04:55:28.144Z,101339.78
2022-07-29T04:57:54.936Z,101347.22
2022-07-29T05:00:21.641Z,101346.19
2022-07-29T05:02:55.077Z,101341.56
2022-07-29T05:05:21.856Z,101333.56
2022-07-29T05:07:48.485Z,101346.13
2022-07-29T05:10:15.226Z,101349.69
2022-07-29T05:12:44.529Z,101347.06
2022-07-29T05:15:11.380Z,101353.28
2022-07-29T05:17:38.224Z,101354.03
2022-07-29T05:20:07.283Z,101342.91
2022-07-29T05:22:34.132Z,101344.28
2022-07-29T05:25:04.301Z,101346.88
2022-07-29T05:27:33.705Z,101336.69
2022-07-29T05:30:01.769Z,101345.56
2022-07-29T05:32:28.601Z,101347.97
2022-07-29T05:34:55.486Z,101340.84
2022-07-29T05:37:22.377Z,101342.22
2022-07-29T05:39:56.354Z,101341.94
2022-07-29T05:42:25.010Z,101340.94
2022-07-29T05:44:52.221Z,101346.56
2022-07-29T05:47:18.991Z,101341.19
2022-07-29T05:49:47.115Z,101340.34
2022-07-29T05:52:14.222Z,101341.34
2022-07-29T05:54:41.603Z,101337.81
2022-07-29T05:57:08.676Z,101343.06
2022-07-29T05:59:39.301Z,101342.91
2022-07-29T06:02:06.385Z,101345.44
2022-07-29T06:04:34.682Z,101341.03
2022-07-29T06:07:02.617Z,101339.66
2022-07-29T06:09:29.674Z,101337.41
2022-07-29T06:11:56.692Z,101343.31
2022-07-29T06:14:23.369Z,101347.66
2022-07-29T06:16:50.216Z,101341.53
2022-07-29T06:19:17.193Z,101344.59
2022-07-29T06:21:46.237Z,101350.16
2022-07-29T06:24:15.508Z,101349.63
2022-07-29T06:26:43.539Z,101356.59
2022-07-29T06:29:11.790Z,101355.34
2022-07-29T06:31:40.908Z,101350.41
2022-07-29T06:34:08.300Z,101360.06
2022-07-29T06:36:39.730Z,101352.75
2022-07-29T06:39:09.446Z,101360.81
2022-07-29T06:41:38.374Z,101358.00
2022-07-29T06:44:05.677Z,101355.59
2022-07-29T06:46:33.209Z,101355.34
2022-07-29T06:49:02.411Z,101356.06
2022-07-29T06:51:29.848Z,101358.84
2022-07-29T06:54:02.391Z,101360.84
2022-07-29T06:56:38.316Z,101362.00
2022-07-29T06:59:10.050Z,101364.97
2022-07-29T07:01:43.862Z,101369.50
2022-07-29T07:04:12.760Z,101366.91
2022-07-29T07:06:40.474Z,101370.03
2022-07-29T07:09:07.769Z,101362.44
2022-07-29T07:11:34.829Z,101373.06
2022-07-29T07:14:03.815Z,101374.84
2022-07-29T07:16:32.932Z,101373.56
2022-07-29T07:19:00.137Z,101356.00
2022-07-29T07:21:27.108Z,101361.72
2022-07-29T07:23:57.313Z,101361.41
2022-07-29T07:26:26.085Z,101360.78
2022-07-29T07:28:52.873Z,101358.88
2022-07-29T07:31:19.951Z,101363.91
2022-07-29T07:33:46.892Z,101357.44
2022-07-29T07:36:13.629Z,101354.50
2022-07-29T07:38:40.758Z,101356.84
2022-07-29T07:41:07.503Z,101354.09
2022-07-29T07:43:34.431Z,101351.81
2022-07-29T07:46:01.266Z,101356.84
2022-07-29T07:48:28.073Z,101358.09
2022-07-29T07:50:54.862Z,101353.88
2022-07-29T07:53:22.699Z,101357.75
2022-07-29T07:58:36.487Z,101353.03
2022-07-29T08:01:06.521Z,101356.78
2022-07-29T08:03:34.553Z,101351.78
2022-07-29T08:06:02.129Z,101349.66
2022-07-29T08:08:31.948Z,101350.09
2022-07-29T08:11:00.658Z,101349.06
2022-07-29T08:13:31.180Z,101350.56
2022-07-29T08:16:03.293Z,101352.19
2022-07-29T08:18:33.221Z,101350.66
2022-07-29T08:21:00.120Z,101354.03
2022-07-29T08:23:31.636Z,101353.28
2022-07-29T08:26:14.024Z,101348.63
2022-07-29T08:28:47.154Z,101348.38
2022-07-29T08:31:15.359Z,101344.78
2022-07-29T08:33:42.948Z,101352.84
2022-07-29T08:36:10.589Z,101348.38
2022-07-29T08:38:37.448Z,101341.00
2022-07-29T08:41:04.624Z,101343.25
2022-07-29T08:43:34.849Z,101348.31
2022-07-29T08:46:02.117Z,101338.66
2022-07-29T08:48:29.031Z,101341.97
2022-07-29T08:50:59.268Z,101338.78
2022-07-29T08:56:18.133Z,101340.13
2022-07-29T09:01:42.380Z,101343.00
2022-07-29T09:04:14.952Z,101332.75
2022-07-29T09:06:53.398Z,101337.97
2022-07-29T09:09:21.918Z,101347.00
2022-07-29T09:11:49.479Z,101331.97
2022-07-29T09:14:16.537Z,101339.81
2022-07-29T09:16:57.059Z,101341.94
2022-07-29T09:19:32.701Z,101338.09
2022-07-29T09:22:07.882Z,101335.03
2022-07-29T09:24:48.489Z,101340.25
2022-07-29T09:27:18.158Z,101340.56
2022-07-29T09:29:45.417Z,101345.91
2022-07-29T09:32:12.472Z,101342.50
2022-07-29T09:34:39.552Z,101337.75
2022-07-29T09:37:07.074Z,101329.50
2022-07-29T09:39:47.320Z,101332.22
2022-07-29T09:42:18.732Z,101342.59
2022-07-29T09:44:51.468Z,101337.03
2022-07-29T09:47:22.671Z,101342.38
2022-07-29T09:49:58.831Z,101341.03
2022-07-29T09:52:31.005Z,101336.94
2022-07-29T09:55:10.155Z,101332.63
2022-07-29T09:57:41.264Z,101329.94
2022-07-29T10:00:17.343Z,101336.84
2022-07-29T10:02:47.850Z,101332.06
2022-07-29T10:05:26.032Z,101330.56
2022-07-29T10:07:58.624Z,101326.97
2022-07-29T10:10:35.918Z,101329.03
2022-07-29T10:13:15.968Z,101322.75
2022-07-29T10:15:47.122Z,101326.22
2022-07-29T10:18:20.756Z,101325.56
2022-07-29T10:20:49.303Z,101327.00
2022-07-29T10:23:16.157Z,101319.44
2022-07-29T10:25:46.157Z,101326.09
2022-07-29T10:28:16.434Z,101323.00
2022-07-29T10:30:47.702Z,101328.47
2022-07-29T10:34:03.960Z,101324.53
2022-07-29T10:36:54.981Z,101328.66
2022-07-29T10:40:37.909Z,101319.00
2022-07-29T10:43:39.083Z,101323.56
2022-07-29T10:46:11.526Z,101325.44
2022-07-29T10:49:24.693Z,101323.75
2022-07-29T10:52:11.405Z,101322.41
2022-07-29T10:54:48.786Z,101322.09
2022-07-29T10:57:53.629Z,101315.97
2022-07-29T11:00:27.933Z,101315.66
2022-07-29T11:02:56.366Z,101312.00
2022-07-29T11:05:24.816Z,101318.09
2022-07-29T11:08:20.076Z,101316.06
2022-07-29T11:10:55.037Z,101320.22
2022-07-29T11:13:53.263Z,101326.63
2022-07-29T11:16:25.331Z,101328.59
2022-07-29T11:19:14.776Z,101312.78
2022-07-29T11:21:54.755Z,101316.81
2022-07-29T11:24:35.755Z,101329.00
2022-07-29T11:27:21.859Z,101319.19
2022-07-29T11:29:57.122Z,101320.31
2022-07-29T11:32:44.959Z,101316.88
2022-07-29T11:35:37.953Z,101321.94
2022-07-29T11:38:23.514Z,101319.72
2022-07-29T11:41:30.180Z,101312.22
2022-07-29T11:44:01.640Z,101311.13
2022-07-29T11:46:50.726Z,101316.75
2022-07-29T11:52:15.182Z,101308.22
2022-07-29T11:54:58.003Z,101306.84
2022-07-29T11:57:36.698Z,101310.91
2022-07-29T12:00:12.190Z,101307.13
2022-07-29T12:02:48.683Z,101309.97
2022-07-29T12:05:22.221Z,101306.25
2022-07-29T12:08:20.515Z,101307.31
2022-07-29T12:10:51.514Z,101302.31
2022-07-29T12:13:23.063Z,101306.53
2022-07-29T12:16:08.782Z,101300.75
2022-07-29T12:18:41.768Z,101300.56
2022-07-29T12:21:09.284Z,101299.56
2022-07-29T12:23:39.286Z,101297.47
2022-07-29T12:26:10.541Z,101301.22
2022-07-29T12:28:40.048Z,101304.19
2022-07-29T12:31:14.824Z,101299.88
2022-07-29T12:34:04.623Z,101301.53
2022-07-29T12:36:32.471Z,101303.56
2022-07-29T12:38:59.486Z,101296.84
2022-07-29T12:41:30.166Z,101300.94
2022-07-29T12:43:57.505Z,101292.72
2022-07-29T12:46:24.450Z,101292.88
2022-07-29T12:48:59.866Z,101290.50
2022-07-29T12:51:41.615Z,101291.13
2022-07-29T12:54:18.257Z,101291.38
2022-07-29T12:56:46.065Z,101297.41
2022-07-29T12:59:23.410Z,101302.00
2022-07-29T13:01:53.595Z,101296.47
2022-07-29T13:04:34.120Z,101295.59
2022-07-29T13:08:29.489Z,101289.63
2022-07-29T13:10:25.253Z,101291.75
2022-07-29T13:13:10.371Z,101288.78
2022-07-29T13:15:44.571Z,101284.50
2022-07-29T13:18:39.068Z,101286.31
2022-07-29T13:21:17.721Z,101280.19
2022-07-29T13:23:45.931Z,101283.78
2022-07-29T13:26:15.755Z,101281.31
2022-07-29T13:28:44.280Z,101277.66
2022-07-29T13:31:11.563Z,101276.59
2022-07-29T13:33:38.456Z,101282.66
2022-07-29T13:36:05.354Z,101286.69
2022-07-29T13:38:40.547Z,101286.78
2022-07-29T13:41:07.464Z,101287.81
2022-07-29T13:43:34.291Z,101278.66
2022-07-29T13:46:01.111Z,101280.38
2022-07-29T13:48:28.035Z,101275.50
2022-07-29T13:50:54.855Z,101268.31
2022-07-29T13:53:26.866Z,101268.81
2022-07-29T13:55:54.866Z,101270.44
2022-07-29T13:58:21.653Z,101266.94
2022-07-29T14:00:48.487Z,101266.09
2022-07-29T14:03:15.220Z,101269.00
2022-07-29T14:05:42.024Z,101267.75
2022-07-29T14:08:08.769Z,101262.25
2022-07-29T14:10:35.529Z,101255.09
2022-07-29T14:13:02.408Z,101263.34
2022-07-29T14:15:30.125Z,101258.22
2022-07-29T14:17:56.769Z,101259.38
2022-07-29T14:20:23.614Z,101249.59
2022-07-29T14:22:50.298Z,101247.94
2022-07-29T14:25:17.218Z,101251.34
2022-07-29T14:27:44.703Z,101251.03
2022-07-29T14:30:15.990Z,101252.31
2022-07-29T14:32:49.546Z,101247.22
2022-07-29T14:35:17.311Z,101248.59
2022-07-29T14:37:44.425Z,101241.13
2022-07-29T14:40:12.350Z,101246.25
2022-07-29T14:42:40.420Z,101251.81
2022-07-29T14:45:10.286Z,101247.59
2022-07-29T14:47:39.204Z,101243.22
2022-07-29T14:50:11.222Z,101246.09
2022-07-29T14:52:38.416Z,101235.63
2022-07-29T14:55:19.839Z,101238.75
2022-07-29T14:57:47.820Z,101231.50
2022-07-29T15:00:15.327Z,101232.31
2022-07-29T15:03:00.961Z,101224.50
2022-07-29T15:05:29.274Z,101234.78
2022-07-29T15:07:56.338Z,101230.28
2022-07-29T15:10:24.824Z,101235.00
2022-07-29T15:12:51.623Z,101233.50
2022-07-29T15:15:18.476Z,101230.34
2022-07-29T15:17:45.592Z,101230.13
2022-07-29T15:20:13.374Z,101226.56
2022-07-29T15:22:45.611Z,101221.69
2022-07-29T15:25:12.614Z,101212.97
2022-07-29T15:27:39.413Z,101217.41
2022-07-29T15:30:07.325Z,101214.91
2022-07-29T15:32:34.003Z,101222.13
2022-07-29T15:35:00.758Z,101215.53
2022-07-29T15:37:29.254Z,101218.81
2022-07-29T15:40:15.822Z,101208.75
2022-07-29T15:42:42.693Z,101204.50
2022-07-29T15:45:10.206Z,101214.19
2022-07-29T15:47:37.003Z,101212.06
2022-07-29T15:50:04.847Z,101207.84
2022-07-29T15:52:31.678Z,101203.88
2022-07-29T15:54:58.662Z,101204.81
2022-07-29T15:57:25.855Z,101199.59
2022-07-29T15:59:53.223Z,101198.97
2022-07-29T16:02:20.254Z,101191.94
2022-07-29T16:04:48.250Z,101194.78
2022-07-29T16:07:16.056Z,101190.41
2022-07-29T16:09:49.258Z,101200.78
2022-07-29T16:12:19.809Z,101190.69
2022-07-29T16:14:49.328Z,101191.91
2022-07-29T16:17:16.379Z,101183.72
2022-07-29T16:19:45.419Z,101185.78
2022-07-29T16:22:12.998Z,101192.19
2022-07-29T16:24:40.063Z,101184.03
2022-07-29T16:27:07.507Z,101185.50
2022-07-29T16:29:34.842Z,101180.44
2022-07-29T16:32:02.037Z,101183.69
2022-07-29T16:34:32.012Z,101182.56
2022-07-29T16:37:00.371Z,101182.56
2022-07-29T16:39:27.560Z,101183.53
2022-07-29T16:41:58.300Z,101183.44
2022-07-29T16:44:27.687Z,101176.06
2022-07-29T16:46:56.122Z,101173.94
2022-07-29T16:49:26.612Z,101172.53
2022-07-29T16:51:54.004Z,101170.44
2022-07-29T16:54:20.773Z,101176.34
2022-07-29T16:56:50.684Z,101169.28
2022-07-29T16:59:17.615Z,101159.81
2022-07-29T17:01:44.508Z,101156.22
2022-07-29T17:04:12.026Z,101156.41
2022-07-29T17:06:42.962Z,101162.19
2022-07-29T17:09:16.745Z,101159.84
2022-07-29T17:11:53.358Z,101159.75
2022-07-29T17:14:27.022Z,101151.06
2022-07-29T17:17:13.792Z,101153.00
2022-07-29T17:19:42.838Z,101153.09
2022-07-29T17:22:17.109Z,101147.66
2022-07-29T17:24:48.166Z,101140.91
2022-07-29T17:27:16.578Z,101144.91
2022-07-29T17:29:43.794Z,101142.31
2022-07-29T17:32:11.729Z,101150.16
2022-07-29T17:34:42.107Z,101144.22
2022-07-29T17:37:13.004Z,101144.44
2022-07-29T17:39:43.100Z,101141.41
2022-07-29T17:42:21.495Z,101130.66
2022-07-29T17:44:51.617Z,101131.50
2022-07-29T17:47:22.165Z,101139.88
2022-07-29T17:49:48.953Z,101128.31
2022-07-29T17:52:17.871Z,101133.34
2022-07-29T17:54:44.697Z,101134.53
2022-07-29T17:57:11.475Z,101136.41
2022-07-29T17:59:38.212Z,101135.09
2022-07-29T18:02:05.113Z,101127.88
2022-07-29T18:04:32.657Z,101135.06
2022-07-29T18:06:59.873Z,101127.50
2022-07-29T18:09:26.904Z,101130.34
2022-07-29T18:14:40.470Z,101129.63
2022-07-29T18:17:07.711Z,101132.81
2022-07-29T18:19:35.100Z,101132.59
2022-07-29T18:22:05.126Z,101129.41
2022-07-29T18:24:33.058Z,101132.88
2022-07-29T18:27:00.097Z,101123.41
2022-07-29T18:29:29.076Z,101128.16
2022-07-29T18:31:56.430Z,101129.00
2022-07-29T18:34:23.196Z,101134.00
2022-07-29T18:36:49.910Z,101144.94
2022-07-29T18:39:20.987Z,101138.00
2022-07-29T18:41:51.174Z,101142.63
2022-07-29T18:44:22.701Z,101136.91
2022-07-29T18:46:53.347Z,101127.41
2022-07-29T18:49:22.603Z,101136.63
2022-07-29T18:51:50.691Z,101132.41
2022-07-29T18:54:19.018Z,101139.06
2022-07-29T18:56:47.220Z,101136.94
2022-07-29T18:59:20.206Z,101140.06
2022-07-29T19:01:48.855Z,101135.56
2022-07-29T19:04:17.468Z,101131.16
2022-07-29T19:06:44.300Z,101134.88
2022-07-29T19:09:11.377Z,101127.44
2022-07-29T19:11:39.809Z,101132.84
2022-07-29T19:14:07.783Z,101129.41
2022-07-29T19:16:34.875Z,101127.00
2022-07-29T19:19:04.100Z,101136.03
2022-07-29T19:21:30.954Z,101138.28
2022-07-29T19:24:00.783Z,101134.47
2022-07-29T19:26:36.506Z,101130.56
2022-07-29T19:29:04.215Z,101133.88
2022-07-29T19:31:31.056Z,101141.63
2022-07-29T19:33:57.874Z,101126.00
2022-07-29T19:36:24.683Z,101142.56
2022-07-29T19:38:51.317Z,101137.69
2022-07-29T19:41:18.066Z,101136.19
2022-07-29T19:43:50.633Z,101136.94
2022-07-29T19:46:21.311Z,101139.41
2022-07-29T19:48:48.796Z,101136.66
2022-07-29T19:51:15.709Z,101133.28
2022-07-29T19:53:42.536Z,101133.00
2022-07-29T19:56:09.386Z,101139.31
2022-07-29T19:58:36.576Z,101135.09
2022-07-29T20:01:10.410Z,101134.44
2022-07-29T20:03:42.299Z,101135.00
2022-07-29T20:06:12.717Z,101137.25
2022-07-29T20:08:39.840Z,101126.72
2022-07-29T20:11:06.834Z,101133.41
2022-07-29T20:13:35.203Z,101140.34
2022-07-29T20:16:05.648Z,101135.94
2022-07-29T20:18:32.707Z,101134.41
2022-07-29T20:21:01.271Z,101133.59
2022-07-29T20:23:28.105Z,101135.94
2022-07-29T20:26:00.253Z,101133.22
2022-07-29T20:28:27.575Z,101142.25
2022-07-29T20:30:54.383Z,101135.28
2022-07-29T20:33:21.145Z,101137.34
2022-07-29T20:35:50.921Z,101133.13
2022-07-29T20:38:18.433Z,101130.56
2022-07-29T20:40:45.958Z,101136.22
2022-07-29T20:43:12.723Z,101141.00
2022-07-29T20:45:39.757Z,101134.25
2022-07-29T20:48:08.298Z,101136.13
2022-07-29T20:50:37.738Z,101135.66
2022-07-29T20:53:07.212Z,101133.28
2022-07-29T20:55:34.079Z,101136.22
2022-07-29T20:58:03.278Z,101138.28
2022-07-29T21:00:31.092Z,101135.34
2022-07-29T21:02:58.019Z,101135.56
2022-07-29T21:05:24.888Z,101137.72
2022-07-29T21:07:55.358Z,101138.56
2022-07-29T21:10:24.588Z,101129.16
2022-07-29T21:12:51.329Z,101140.72
2022-07-29T21:15:20.694Z,101133.88
2022-07-29T21:17:48.407Z,101131.16
2022-07-29T21:20:18.885Z,101133.13
2022-07-29T21:22:45.734Z,101127.47
2022-07-29T21:25:12.610Z,101134.81
2022-07-29T21:27:57.637Z,101131.69
2022-07-29T21:30:24.468Z,101125.88
2022-07-29T21:32:51.221Z,101133.84
2022-07-29T21:35:35.595Z,101133.84
2022-07-29T21:38:04.639Z,101135.75
2022-07-29T21:40:31.348Z,101132.84
2022-07-29T21:42:58.091Z,101128.41
2022-07-29T21:45:24.993Z,101127.19
2022-07-29T21:47:51.704Z,101125.31
2022-07-29T21:50:18.653Z,101123.25
2022-07-29T21:52:45.386Z,101129.94
2022-07-29T21:55:13.827Z,101127.38
2022-07-29T21:57:40.694Z,101127.66
2022-07-29T22:00:15.648Z,101132.09
2022-07-29T22:02:43.754Z,101129.94
2022-07-29T22:05:12.378Z,101139.97
2022-07-29T22:07:55.676Z,101135.16
2022-07-29T22:10:27.013Z,101134.34
2022-07-29T22:13:00.755Z,101129.06
2022-07-29T22:15:32.716Z,101124.81
2022-07-29T22:18:03.147Z,101123.81
2022-07-29T22:20:32.971Z,101122.59
2022-07-29T22:23:00.612Z,101132.66
2022-07-29T22:25:30.493Z,101132.84
2022-07-29T22:27:57.231Z,101128.22
2022-07-29T22:30:23.993Z,101124.81
2022-07-29T22:32:50.683Z,101120.41
2022-07-29T22:35:17.677Z,101122.94
2022-07-29T22:37:44.470Z,101122.94
2022-07-29T22:40:11.903Z,101123.16
2022-07-29T22:42:40.785Z,101127.19
2022-07-29T22:45:09.985Z,101119.38
2022-07-29T22:47:46.271Z,101127.56
2022-07-29T22:50:17.022Z,101120.03
2022-07-29T22:52:44.002Z,101121.25
2022-07-29T22:55:10.914Z,101124.81
2022-07-29T22:57:37.676Z,101125.88
2022-07-29T23:00:07.186Z,101118.94
2022-07-29T23:02:33.820Z,101122.50
2022-07-29T23:05:00.487Z,101121.00
2022-07-29T23:07:27.254Z,101121.00
2022-07-29T23:09:54.282Z,101120.59
2022-07-29T23:12:21.250Z,101117.88
2022-07-29T23:14:48.243Z,101110.06
2022-07-29T23:17:17.973Z,101109.41
2022-07-29T23:19:45.302Z,101110.44
2022-07-29T23:22:12.066Z,101105.84
2022-07-29T23:24:38.744Z,101106.03
2022-07-29T23:27:07.652Z,101117.59
2022-07-29T23:29:36.800Z,101104.53
2022-07-29T23:32:04.607Z,101105.84
2022-07-29T23:34:31.307Z,101102.25
2022-07-29T23:36:58.907Z,101100.56
2022-07-29T23:39:26.025Z,101101.41
2022-07-29T23:41:52.704Z,101100.56
2022-07-29T23:44:19.473Z,101098.88
2022-07-29T23:46:46.396Z,101096.34
2022-07-29T23:49:13.965Z,101089.41
2022-07-29T23:51:40.614Z,101088.25
2022-07-29T23:54:07.421Z,101089.47
2022-07-29T23:56:34.066Z,101080.63
2022-07-29T23:59:01.155Z,101079.97
